Time,TemperatureF,DewpointF,PressureIn,WindDirection,WindDirectionDegrees,WindSpeedMPH,WindSpeedGustMPH,Humidity,HourlyPrecipIn,Conditions,Clouds,dailyrainin,SoftwareType,DateUTC
2013-02-05 00:01:00,20.8,17.8,29.99,North,7,0.0,6.0,88,0.00,,,0.02,meteohub,2013-02-05 06:01:00,
2013-02-05 00:06:00,20.7,17.6,29.99,North,7,0.0,0.0,88,0.00,,,0.00,meteohub,2013-02-05 06:06:00,
2013-02-05 00:11:00,20.5,17.4,29.99,North,7,0.0,0.0,88,0.00,,,0.00,meteohub,2013-02-05 06:11:00,
2013-02-05 00:17:00,20.5,17.4,29.99,North,7,0.0,0.0,88,0.00,,,0.00,meteohub,2013-02-05 06:17:00,
2013-02-05 00:23:00,20.5,17.8,29.99,North,7,0.0,0.0,89,0.00,,,0.00,meteohub,2013-02-05 06:23:00,
2013-02-05 00:28:00,20.5,17.8,29.99,North,7,0.0,0.0,89,0.00,,,0.00,meteohub,2013-02-05 06:28:00,
2013-02-05 00:33:00,20.5,17.8,29.98,North,7,0.0,0.0,89,0.00,,,0.00,meteohub,2013-02-05 06:33:00,
2013-02-05 00:38:00,20.5,17.4,29.98,North,7,0.0,0.0,88,0.00,,,0.00,meteohub,2013-02-05 06:38:00,
2013-02-05 00:43:00,20.5,17.4,29.98,North,7,0.0,0.0,88,0.00,,,0.00,meteohub,2013-02-05 06:43:00,
2013-02-05 00:48:00,20.3,17.2,29.98,North,7,0.0,0.0,88,0.00,,,0.00,meteohub,2013-02-05 06:48:00,
2013-02-05 00:53:00,20.1,17.1,29.99,North,7,0.0,0.0,88,0.00,,,0.00,meteohub,2013-02-05 06:53:00,
2013-02-05 00:58:00,19.9,17.2,29.99,North,7,0.0,0.0,89,0.00,,,0.00,meteohub,2013-02-05 06:58:00,
2013-02-05 01:03:00,19.8,17.1,29.98,North,7,0.0,0.0,89,0.00,,,0.00,meteohub,2013-02-05 07:03:00,
2013-02-05 01:08:00,19.8,17.1,29.98,North,7,0.0,0.0,89,0.00,,,0.00,meteohub,2013-02-05 07:08:00,
2013-02-05 01:13:00,19.8,17.2,29.98,North,7,0.0,0.0,90,0.00,,,0.00,meteohub,2013-02-05 07:13:00,
2013-02-05 01:18:00,19.8,17.2,29.98,North,7,0.0,0.0,90,0.00,,,0.00,meteohub,2013-02-05 07:18:00,
2013-02-05 01:23:00,19.6,16.9,29.98,North,7,0.0,0.0,89,0.00,,,0.00,meteohub,2013-02-05 07:23:00,
2013-02-05 01:28:00,19.6,17.1,29.98,North,7,0.0,0.0,90,0.00,,,0.00,meteohub,2013-02-05 07:28:00,
2013-02-05 01:34:00,19.4,16.9,29.99,North,7,0.0,0.0,90,0.00,,,0.00,meteohub,2013-02-05 07:34:00,
2013-02-05 01:39:00,19.4,16.9,29.99,North,7,0.0,0.0,90,0.00,,,0.00,meteohub,2013-02-05 07:39:00,
2013-02-05 01:44:00,19.6,17.4,29.98,North,7,0.0,0.0,91,0.00,,,0.00,meteohub,2013-02-05 07:44:00,
2013-02-05 01:49:00,19.6,17.4,29.98,North,7,0.0,0.0,91,0.00,,,0.00,meteohub,2013-02-05 07:49:00,
2013-02-05 01:54:00,19.8,17.2,29.98,North,7,0.0,0.0,90,0.00,,,0.00,meteohub,2013-02-05 07:54:00,
2013-02-05 01:59:00,19.9,17.4,29.98,North,7,0.0,0.0,90,0.00,,,0.00,meteohub,2013-02-05 07:59:00,
2013-02-05 02:04:00,19.9,17.4,29.98,North,7,0.0,0.0,90,0.00,,,0.00,meteohub,2013-02-05 08:04:00,
2013-02-05 02:09:00,19.9,17.4,29.98,North,7,0.0,0.0,90,0.00,,,0.00,meteohub,2013-02-05 08:09:00,
2013-02-05 02:14:00,20.1,17.6,29.99,North,7,0.0,0.0,90,0.00,,,0.00,meteohub,2013-02-05 08:14:00,
2013-02-05 02:19:00,19.9,17.4,29.99,North,7,0.0,0.0,90,0.00,,,0.00,meteohub,2013-02-05 08:19:00,
2013-02-05 02:24:00,19.9,17.4,29.99,North,7,0.0,0.0,90,0.00,,,0.00,meteohub,2013-02-05 08:24:00,
2013-02-05 02:29:00,19.9,17.4,29.99,North,7,0.0,0.0,90,0.00,,,0.00,meteohub,2013-02-05 08:29:00,
2013-02-05 02:34:00,19.9,17.4,29.99,North,7,0.0,0.0,90,0.00,,,0.00,meteohub,2013-02-05 08:34:00,
2013-02-05 02:39:00,19.9,17.4,29.99,North,7,0.0,0.0,90,0.00,,,0.00,meteohub,2013-02-05 08:39:00,
2013-02-05 02:44:00,19.8,17.2,29.99,North,7,0.0,0.0,90,0.00,,,0.00,meteohub,2013-02-05 08:44:00,
2013-02-05 02:49:00,19.8,17.2,29.98,North,7,0.0,0.0,90,0.00,,,0.00,meteohub,2013-02-05 08:49:00,
2013-02-05 02:54:00,19.9,17.4,29.98,North,7,0.0,0.0,90,0.00,,,0.00,meteohub,2013-02-05 08:54:00,
2013-02-05 02:59:00,19.9,17.4,29.97,North,7,0.0,0.0,90,0.00,,,0.00,meteohub,2013-02-05 08:59:00,
2013-02-05 03:04:00,20.1,18.0,29.97,North,7,0.0,0.0,91,0.00,,,0.00,meteohub,2013-02-05 09:04:00,
2013-02-05 03:09:00,20.5,18.3,29.97,North,7,0.0,0.0,91,0.00,,,0.00,meteohub,2013-02-05 09:09:00,
2013-02-05 03:14:00,20.7,18.1,29.97,North,7,0.0,0.0,90,0.00,,,0.00,meteohub,2013-02-05 09:14:00,
2013-02-05 03:19:00,20.8,18.7,29.97,North,7,0.0,0.0,91,0.00,,,0.00,meteohub,2013-02-05 09:19:00,
2013-02-05 03:24:00,21.0,18.5,29.97,North,7,0.0,0.0,90,0.00,,,0.00,meteohub,2013-02-05 09:24:00,
2013-02-05 03:29:00,21.0,18.5,29.96,North,7,0.0,0.0,90,0.00,,,0.00,meteohub,2013-02-05 09:29:00,
2013-02-05 03:34:00,21.0,18.3,29.96,North,7,0.0,0.0,89,0.00,,,0.00,meteohub,2013-02-05 09:34:00,
2013-02-05 03:40:00,21.2,18.5,29.96,North,7,0.0,0.0,89,0.00,,,0.00,meteohub,2013-02-05 09:40:00,
2013-02-05 03:45:00,21.4,18.7,29.96,North,7,0.0,0.0,89,0.00,,,0.00,meteohub,2013-02-05 09:45:00,
2013-02-05 03:50:00,21.4,18.7,29.95,North,7,0.0,0.0,89,0.00,,,0.00,meteohub,2013-02-05 09:50:00,
2013-02-05 03:55:00,21.6,18.9,29.95,North,7,0.0,0.0,89,0.00,,,0.00,meteohub,2013-02-05 09:55:00,
2013-02-05 04:00:00,21.6,18.9,29.95,North,7,0.0,0.0,89,0.00,,,0.00,meteohub,2013-02-05 10:00:00,
2013-02-05 04:05:00,21.7,19.0,29.96,North,7,0.0,0.0,89,0.00,,,0.00,meteohub,2013-02-05 10:05:00,
2013-02-05 04:10:00,21.7,19.0,29.95,North,7,0.0,0.0,89,0.00,,,0.00,meteohub,2013-02-05 10:10:00,
2013-02-05 04:15:00,21.9,19.2,29.95,North,7,0.0,0.0,89,0.00,,,0.00,meteohub,2013-02-05 10:15:00,
2013-02-05 04:20:00,21.9,19.2,29.95,North,7,0.0,0.0,89,0.00,,,0.00,meteohub,2013-02-05 10:20:00,
2013-02-05 04:25:00,22.3,19.6,29.96,North,7,0.0,0.0,89,0.00,,,0.00,meteohub,2013-02-05 10:25:00,
2013-02-05 04:30:00,22.3,19.6,29.96,North,7,0.0,0.0,89,0.00,,,0.00,meteohub,2013-02-05 10:30:00,
2013-02-05 04:35:00,22.5,19.8,29.96,North,7,0.0,0.0,89,0.00,,,0.00,meteohub,2013-02-05 10:35:00,
2013-02-05 04:40:00,22.5,19.8,29.96,North,7,0.0,0.0,89,0.00,,,0.00,meteohub,2013-02-05 10:40:00,
2013-02-05 04:45:00,22.6,19.9,29.96,North,7,0.0,0.0,89,0.00,,,0.00,meteohub,2013-02-05 10:45:00,
2013-02-05 04:50:00,22.6,19.9,29.95,North,7,0.0,0.0,89,0.00,,,0.00,meteohub,2013-02-05 10:50:00,
2013-02-05 04:55:00,22.6,19.9,29.95,North,7,0.0,0.0,89,0.00,,,0.00,meteohub,2013-02-05 10:55:00,
2013-02-05 05:00:00,22.6,19.9,29.95,North,7,0.0,0.0,89,0.00,,,0.00,meteohub,2013-02-05 11:00:00,
2013-02-05 05:05:00,22.8,20.1,29.95,North,7,0.0,0.0,89,0.00,,,0.00,meteohub,2013-02-05 11:05:00,
2013-02-05 05:10:00,22.8,20.1,29.95,North,7,0.0,5.0,89,0.00,,,0.00,meteohub,2013-02-05 11:10:00,
2013-02-05 05:16:00,22.8,20.1,29.95,North,7,0.0,5.0,89,0.00,,,0.00,meteohub,2013-02-05 11:16:00,
2013-02-05 05:21:00,22.8,20.1,29.95,South,182,0.0,5.0,89,0.00,,,0.00,meteohub,2013-02-05 11:21:00,
2013-02-05 05:26:00,23.0,20.3,29.95,South,188,0.0,6.0,89,0.00,,,0.00,meteohub,2013-02-05 11:26:00,
2013-02-05 05:31:00,23.2,20.5,29.94,SSW,199,0.0,6.0,89,0.00,,,0.00,meteohub,2013-02-05 11:31:00,
2013-02-05 05:36:00,23.2,20.5,29.94,SSW,199,0.0,6.0,89,0.00,,,0.00,meteohub,2013-02-05 11:36:00,
2013-02-05 05:41:00,23.4,20.7,29.94,SSW,198,0.0,6.0,89,0.00,,,0.00,meteohub,2013-02-05 11:41:00,
2013-02-05 05:46:00,23.5,20.8,29.94,SSW,198,0.0,6.0,89,0.00,,,0.00,meteohub,2013-02-05 11:46:00,
2013-02-05 05:51:00,23.5,20.8,29.94,SSW,198,0.0,6.0,89,0.00,,,0.00,meteohub,2013-02-05 11:51:00,
2013-02-05 05:56:00,23.5,20.8,29.94,SSW,198,0.0,5.0,89,0.00,,,0.00,meteohub,2013-02-05 11:56:00,
2013-02-05 06:01:00,23.7,21.0,29.94,SSW,198,0.0,5.0,89,0.00,,,0.00,meteohub,2013-02-05 12:01:00,
2013-02-05 06:06:00,23.7,21.0,29.94,SSW,198,0.0,0.0,89,0.00,,,0.00,meteohub,2013-02-05 12:06:00,
2013-02-05 06:11:00,23.7,21.0,29.93,SSW,198,0.0,0.0,89,0.00,,,0.00,meteohub,2013-02-05 12:11:00,
2013-02-05 06:16:00,23.7,21.2,29.93,SSW,198,0.0,0.0,90,0.00,,,0.00,meteohub,2013-02-05 12:16:00,
2013-02-05 06:21:00,23.7,21.2,29.94,SSW,198,0.0,0.0,90,0.00,,,0.00,meteohub,2013-02-05 12:21:00,
2013-02-05 06:26:00,23.9,21.4,29.94,SSW,198,0.0,0.0,90,0.00,,,0.00,meteohub,2013-02-05 12:26:00,
2013-02-05 06:31:00,24.1,21.6,29.94,SSW,194,5.0,5.0,90,0.00,,,0.00,meteohub,2013-02-05 12:31:00,
2013-02-05 06:36:00,24.1,21.6,29.94,South,179,0.0,5.0,90,0.00,,,0.00,meteohub,2013-02-05 12:36:00,
2013-02-05 06:41:00,24.3,21.7,29.93,South,182,5.0,9.0,90,0.00,,,0.00,meteohub,2013-02-05 12:41:00,
2013-02-05 06:46:00,24.3,21.7,29.93,South,187,0.0,9.0,90,0.00,,,0.00,meteohub,2013-02-05 12:46:00,
2013-02-05 06:51:00,24.4,21.9,29.92,South,185,8.0,8.0,90,0.00,,,0.00,meteohub,2013-02-05 12:51:00,
2013-02-05 06:57:00,24.4,21.9,29.93,SSW,195,0.0,10.0,90,0.00,,,0.00,meteohub,2013-02-05 12:57:00,
2013-02-05 07:02:00,24.4,21.9,29.93,South,181,5.0,10.0,90,0.00,,,0.00,meteohub,2013-02-05 13:02:00,
2013-02-05 07:07:00,24.6,22.1,29.94,South,188,8.0,10.0,90,0.00,,,0.00,meteohub,2013-02-05 13:07:00,
2013-02-05 07:12:00,24.6,22.1,29.94,South,184,5.0,10.0,90,0.00,,,0.00,meteohub,2013-02-05 13:12:00,
2013-02-05 07:17:00,24.8,22.3,29.94,SW,214,0.0,10.0,90,0.00,,,0.00,meteohub,2013-02-05 13:17:00,
2013-02-05 07:22:00,24.8,22.3,29.94,South,183,0.0,10.0,90,0.00,,,0.00,meteohub,2013-02-05 13:22:00,
2013-02-05 07:27:00,25.0,22.5,29.94,South,186,0.0,9.0,90,0.00,,,0.00,meteohub,2013-02-05 13:27:00,
2013-02-05 07:32:00,25.0,22.5,29.94,SSW,198,6.0,9.0,90,0.00,,,0.00,meteohub,2013-02-05 13:32:00,
2013-02-05 07:37:00,25.2,22.6,29.94,SSW,204,0.0,10.0,90,0.00,,,0.00,meteohub,2013-02-05 13:37:00,
2013-02-05 07:42:00,25.2,22.6,29.94,SSW,197,5.0,10.0,90,0.00,,,0.00,meteohub,2013-02-05 13:42:00,
2013-02-05 07:47:00,25.3,23.0,29.95,West,261,0.0,10.0,91,0.00,,,0.00,meteohub,2013-02-05 13:47:00,
2013-02-05 07:52:00,25.3,22.8,29.95,SSW,193,0.0,9.0,90,0.00,,,0.00,meteohub,2013-02-05 13:52:00,
2013-02-05 07:57:00,25.5,23.2,29.95,SSW,193,0.0,9.0,91,0.00,,,0.00,meteohub,2013-02-05 13:57:00,
2013-02-05 08:02:00,25.5,23.2,29.95,SSW,193,0.0,9.0,91,0.00,,,0.00,meteohub,2013-02-05 14:02:00,
2013-02-05 08:07:00,25.7,23.4,29.94,South,184,0.0,9.0,91,0.00,,,0.00,meteohub,2013-02-05 14:07:00,
2013-02-05 08:12:00,25.9,23.4,29.94,SSW,199,5.0,9.0,90,0.00,,,0.00,meteohub,2013-02-05 14:12:00,
2013-02-05 08:17:00,26.1,23.7,29.94,SSW,193,0.0,9.0,91,0.00,,,0.00,meteohub,2013-02-05 14:17:00,
2013-02-05 08:22:00,26.2,23.9,29.94,SSW,196,0.0,8.0,91,0.00,,,0.00,meteohub,2013-02-05 14:22:00,
2013-02-05 08:27:00,26.2,23.7,29.93,SSW,206,0.0,8.0,90,0.00,,,0.00,meteohub,2013-02-05 14:27:00,
2013-02-05 08:32:00,26.2,23.7,29.93,SW,215,5.0,12.0,90,0.00,,,0.00,meteohub,2013-02-05 14:32:00,
2013-02-05 08:37:00,26.4,23.9,29.93,SSW,206,0.0,12.0,90,0.00,,,0.00,meteohub,2013-02-05 14:37:00,
2013-02-05 08:42:00,26.4,23.9,29.93,SSW,200,8.0,12.0,90,0.00,,,0.00,meteohub,2013-02-05 14:42:00,
2013-02-05 08:47:00,26.4,23.9,29.92,SSW,199,0.0,10.0,90,0.00,,,0.00,meteohub,2013-02-05 14:47:00,
2013-02-05 08:52:00,26.8,24.3,29.93,SSW,209,6.0,9.0,90,0.00,,,0.00,meteohub,2013-02-05 14:52:00,
2013-02-05 08:57:00,27.1,24.6,29.92,South,187,5.0,10.0,90,0.00,,,0.00,meteohub,2013-02-05 14:57:00,
2013-02-05 09:02:00,27.7,24.8,29.92,SSW,213,6.0,11.0,89,0.00,,,0.00,meteohub,2013-02-05 15:02:00,
2013-02-05 09:07:00,27.9,25.0,29.92,SSW,195,5.0,11.0,89,0.00,,,0.00,meteohub,2013-02-05 15:07:00,
2013-02-05 09:12:00,28.2,25.3,29.91,South,185,6.0,10.0,89,0.00,,,0.00,meteohub,2013-02-05 15:12:00,
2013-02-05 09:17:00,28.6,25.5,29.91,SSW,202,8.0,10.0,88,0.00,,,0.00,meteohub,2013-02-05 15:17:00,
2013-02-05 09:22:00,28.8,25.7,29.91,WSW,253,5.0,9.0,88,0.00,,,0.00,meteohub,2013-02-05 15:22:00,
2013-02-05 09:27:00,28.8,25.3,29.91,SSE,163,8.0,9.0,87,0.00,,,0.00,meteohub,2013-02-05 15:27:00,
2013-02-05 09:32:00,28.8,25.3,29.91,SSW,195,7.0,14.0,87,0.00,,,0.00,meteohub,2013-02-05 15:32:00,
2013-02-05 09:37:00,28.8,25.3,29.92,SSW,194,6.0,14.0,87,0.00,,,0.00,meteohub,2013-02-05 15:37:00,
2013-02-05 09:42:00,28.9,25.5,29.92,SSW,203,6.0,15.0,87,0.00,,,0.00,meteohub,2013-02-05 15:42:00,
2013-02-05 09:47:00,29.1,25.7,29.92,South,190,10.0,15.0,87,0.00,,,0.00,meteohub,2013-02-05 15:47:00,
2013-02-05 09:52:00,29.1,25.7,29.92,SSW,202,8.0,15.0,87,0.00,,,0.00,meteohub,2013-02-05 15:52:00,
2013-02-05 09:57:00,29.5,26.1,29.92,WSW,252,6.0,14.0,87,0.00,,,0.00,meteohub,2013-02-05 15:57:00,
2013-02-05 10:02:00,30.0,26.4,29.92,West,260,0.0,14.0,86,0.00,,,0.00,meteohub,2013-02-05 16:02:00,
2013-02-05 10:07:00,30.0,26.1,29.92,WSW,251,10.0,15.0,85,0.00,,,0.00,meteohub,2013-02-05 16:07:00,
2013-02-05 10:12:00,30.0,26.1,29.92,SSW,213,8.0,15.0,85,0.00,,,0.00,meteohub,2013-02-05 16:12:00,
2013-02-05 10:17:00,30.0,26.4,29.92,SSW,202,5.0,15.0,86,0.00,,,0.00,meteohub,2013-02-05 16:17:00,
2013-02-05 10:22:00,30.4,26.4,29.91,SSW,194,8.0,13.0,85,0.00,,,0.00,meteohub,2013-02-05 16:22:00,
2013-02-05 10:27:00,30.6,26.6,29.91,WSW,251,8.0,13.0,85,0.00,,,0.00,meteohub,2013-02-05 16:27:00,
2013-02-05 10:32:00,31.3,27.3,29.91,South,186,9.0,14.0,85,0.00,,,0.00,meteohub,2013-02-05 16:32:00,
2013-02-05 10:37:00,31.5,27.1,29.91,WSW,255,8.0,14.0,84,0.00,,,0.00,meteohub,2013-02-05 16:37:00,
2013-02-05 10:42:00,31.8,27.5,29.91,SSW,194,8.0,12.0,84,0.00,,,0.00,meteohub,2013-02-05 16:42:00,
2013-02-05 10:47:00,32.4,28.0,29.91,SSW,203,6.0,12.0,84,0.00,,,0.00,meteohub,2013-02-05 16:47:00,
2013-02-05 10:52:00,32.9,28.0,29.90,SW,235,6.0,13.0,82,0.00,,,0.00,meteohub,2013-02-05 16:52:00,
2013-02-05 10:57:00,33.1,27.9,29.90,SW,216,5.0,13.0,81,0.00,,,0.00,meteohub,2013-02-05 16:57:00,
2013-02-05 11:02:00,33.6,28.4,29.90,South,178,10.0,13.0,81,0.00,,,0.00,meteohub,2013-02-05 17:02:00,
2013-02-05 11:07:00,33.4,27.9,29.90,WSW,253,10.0,13.0,80,0.00,,,0.00,meteohub,2013-02-05 17:07:00,
2013-02-05 11:13:00,33.1,27.9,29.90,SSW,211,5.0,16.0,81,0.00,,,0.00,meteohub,2013-02-05 17:13:00,
2013-02-05 11:18:00,33.3,28.0,29.90,SSW,213,9.0,16.0,81,0.00,,,0.00,meteohub,2013-02-05 17:18:00,
2013-02-05 11:23:00,33.6,28.4,29.90,WSW,248,6.0,13.0,81,0.00,,,0.00,meteohub,2013-02-05 17:23:00,
2013-02-05 11:28:00,33.6,28.0,29.89,SW,231,8.0,12.0,80,0.00,,,0.00,meteohub,2013-02-05 17:28:00,
2013-02-05 11:33:00,33.6,28.4,29.89,West,269,10.0,12.0,81,0.00,,,0.00,meteohub,2013-02-05 17:33:00,
2013-02-05 11:38:00,34.3,29.1,29.89,WSW,245,9.0,12.0,81,0.00,,,0.00,meteohub,2013-02-05 17:38:00,
2013-02-05 11:43:00,34.5,28.8,29.88,WSW,251,5.0,12.0,79,0.00,,,0.00,meteohub,2013-02-05 17:43:00,
2013-02-05 11:48:00,35.4,29.3,29.88,SW,214,6.0,15.0,78,0.00,,,0.00,meteohub,2013-02-05 17:48:00,
2013-02-05 11:53:00,36.1,30.0,29.88,WSW,245,10.0,15.0,78,0.00,,,0.00,meteohub,2013-02-05 17:53:00,
2013-02-05 11:58:00,36.0,29.1,29.88,SW,218,6.0,15.0,76,0.00,,,0.00,meteohub,2013-02-05 17:58:00,
2013-02-05 12:03:00,35.4,29.3,29.88,SSW,203,8.0,15.0,78,0.00,,,0.00,meteohub,2013-02-05 18:03:00,
2013-02-05 12:08:00,36.0,29.8,29.87,SW,232,8.0,15.0,78,0.00,,,0.00,meteohub,2013-02-05 18:08:00,
2013-02-05 12:13:00,36.3,29.8,29.87,SW,234,6.0,15.0,77,0.00,,,0.00,meteohub,2013-02-05 18:13:00,
2013-02-05 12:18:00,37.2,30.7,29.86,WSW,249,9.0,13.0,77,0.00,,,0.00,meteohub,2013-02-05 18:18:00,
2013-02-05 12:23:00,37.2,30.4,29.86,WSW,256,7.0,13.0,76,0.00,,,0.00,meteohub,2013-02-05 18:23:00,
2013-02-05 12:28:00,36.9,29.7,29.86,SW,228,8.0,13.0,75,0.00,,,0.00,meteohub,2013-02-05 18:28:00,
2013-02-05 12:33:00,36.3,29.8,29.86,SW,215,5.0,12.0,77,0.00,,,0.00,meteohub,2013-02-05 18:33:00,
2013-02-05 12:38:00,37.0,30.6,29.87,SW,226,8.0,12.0,77,0.00,,,0.00,meteohub,2013-02-05 18:38:00,
2013-02-05 12:44:00,36.3,29.8,29.87,WSW,245,6.0,14.0,77,0.00,,,0.00,meteohub,2013-02-05 18:44:00,
2013-02-05 12:49:00,36.3,30.2,29.87,SW,232,5.0,14.0,78,0.00,,,0.00,meteohub,2013-02-05 18:49:00,
2013-02-05 12:54:00,37.2,30.9,29.87,SW,236,9.0,14.0,78,0.00,,,0.00,meteohub,2013-02-05 18:54:00,
2013-02-05 12:59:00,37.6,30.7,29.87,WNW,300,10.0,14.0,76,0.00,,,0.00,meteohub,2013-02-05 18:59:00,
2013-02-05 13:04:00,36.7,30.2,29.87,West,278,6.0,14.0,77,0.00,,,0.00,meteohub,2013-02-05 19:04:00,
2013-02-05 13:09:00,37.6,30.7,29.87,WSW,246,11.0,14.0,76,0.00,,,0.00,meteohub,2013-02-05 19:09:00,
2013-02-05 13:14:00,37.6,30.7,29.87,WSW,246,10.0,14.0,76,0.00,,,0.00,meteohub,2013-02-05 19:14:00,
2013-02-05 13:19:00,38.1,31.6,29.88,WSW,253,0.0,14.0,77,0.00,,,0.00,meteohub,2013-02-05 19:19:00,
2013-02-05 13:24:00,37.9,31.5,29.88,WSW,257,6.0,17.0,77,0.00,,,0.00,meteohub,2013-02-05 19:24:00,
2013-02-05 13:29:00,38.1,31.3,29.88,WSW,242,5.0,17.0,76,0.00,,,0.00,meteohub,2013-02-05 19:29:00,
2013-02-05 13:34:00,37.6,30.7,29.87,West,261,6.0,14.0,76,0.00,,,0.00,meteohub,2013-02-05 19:34:00,
2013-02-05 13:39:00,38.1,31.3,29.87,WSW,250,6.0,13.0,76,0.00,,,0.00,meteohub,2013-02-05 19:39:00,
2013-02-05 13:44:00,37.8,31.3,29.87,WSW,253,9.0,13.0,77,0.00,,,0.00,meteohub,2013-02-05 19:44:00,
2013-02-05 13:49:00,38.1,31.6,29.87,West,269,8.0,13.0,77,0.00,,,0.00,meteohub,2013-02-05 19:49:00,
2013-02-05 13:54:00,39.2,32.0,29.87,WSW,254,11.0,15.0,75,0.00,,,0.00,meteohub,2013-02-05 19:54:00,
2013-02-05 13:59:00,39.4,31.8,29.88,West,263,11.0,15.0,74,0.00,,,0.00,meteohub,2013-02-05 19:59:00,
2013-02-05 14:05:00,38.7,31.1,29.88,West,275,9.0,14.0,74,0.00,,,0.00,meteohub,2013-02-05 20:05:00,
2013-02-05 14:10:00,39.0,31.8,29.87,WSW,251,8.0,15.0,75,0.00,,,0.00,meteohub,2013-02-05 20:10:00,
2013-02-05 14:15:00,39.9,32.4,29.88,WSW,251,9.0,15.0,74,0.00,,,0.00,meteohub,2013-02-05 20:15:00,
2013-02-05 14:20:00,39.7,32.2,29.88,WSW,249,9.0,15.0,74,0.00,,,0.00,meteohub,2013-02-05 20:20:00,
2013-02-05 14:25:00,39.9,32.0,29.88,West,277,0.0,17.0,73,0.00,,,0.00,meteohub,2013-02-05 20:25:00,
2013-02-05 14:30:00,39.9,32.4,29.88,WSW,244,10.0,16.0,74,0.00,,,0.00,meteohub,2013-02-05 20:30:00,
2013-02-05 14:35:00,39.7,31.8,29.89,West,262,6.0,16.0,73,0.00,,,0.00,meteohub,2013-02-05 20:35:00,
2013-02-05 14:40:00,39.9,32.4,29.89,WSW,256,11.0,16.0,74,0.00,,,0.00,meteohub,2013-02-05 20:40:00,
2013-02-05 14:45:00,40.5,32.9,29.89,West,270,7.0,16.0,74,0.00,,,0.00,meteohub,2013-02-05 20:45:00,
2013-02-05 14:50:00,41.0,33.1,29.89,SW,232,14.0,15.0,73,0.00,,,0.00,meteohub,2013-02-05 20:50:00,
2013-02-05 14:55:00,40.6,32.7,29.89,WSW,255,9.0,16.0,73,0.00,,,0.00,meteohub,2013-02-05 20:55:00,
2013-02-05 15:00:00,40.5,32.9,29.90,West,269,8.0,16.0,74,0.00,,,0.00,meteohub,2013-02-05 21:00:00,
2013-02-05 15:05:00,40.3,32.7,29.91,WSW,255,5.0,17.0,74,0.00,,,0.00,meteohub,2013-02-05 21:05:00,
2013-02-05 15:10:00,39.9,32.7,29.91,WNW,285,8.0,17.0,75,0.00,,,0.00,meteohub,2013-02-05 21:10:00,
2013-02-05 15:15:00,39.9,32.4,29.91,West,269,10.0,17.0,74,0.00,,,0.00,meteohub,2013-02-05 21:15:00,
2013-02-05 15:20:00,39.9,32.4,29.91,WSW,248,6.0,14.0,74,0.00,,,0.00,meteohub,2013-02-05 21:20:00,
2013-02-05 15:26:00,39.9,32.4,29.92,West,268,6.0,14.0,74,0.00,,,0.00,meteohub,2013-02-05 21:26:00,
2013-02-05 15:31:00,39.7,32.2,29.92,WSW,251,0.0,13.0,74,0.00,,,0.00,meteohub,2013-02-05 21:31:00,
2013-02-05 15:36:00,39.6,32.4,29.92,West,259,8.0,14.0,75,0.00,,,0.00,meteohub,2013-02-05 21:36:00,
2013-02-05 15:41:00,39.4,32.2,29.92,West,278,6.0,14.0,75,0.00,,,0.00,meteohub,2013-02-05 21:41:00,
2013-02-05 15:46:00,39.4,32.2,29.92,West,261,6.0,14.0,75,0.00,,,0.00,meteohub,2013-02-05 21:46:00,
2013-02-05 15:51:00,39.4,32.2,29.93,WSW,247,0.0,13.0,75,0.00,,,0.00,meteohub,2013-02-05 21:51:00,
2013-02-05 15:56:00,39.4,32.5,29.93,West,271,0.0,11.0,76,0.00,,,0.00,meteohub,2013-02-05 21:56:00,
2013-02-05 16:01:00,39.0,32.2,29.93,SW,218,7.0,10.0,76,0.00,,,0.00,meteohub,2013-02-05 22:01:00,
2013-02-05 16:06:00,39.0,32.2,29.94,WSW,256,8.0,11.0,76,0.00,,,0.00,meteohub,2013-02-05 22:06:00,
2013-02-05 16:11:00,39.0,32.2,29.94,West,265,5.0,11.0,76,0.00,,,0.00,meteohub,2013-02-05 22:11:00,
2013-02-05 16:16:00,38.8,32.2,29.94,WNW,282,8.0,11.0,77,0.00,,,0.00,meteohub,2013-02-05 22:16:00,
2013-02-05 16:21:00,38.8,32.2,29.94,WSW,240,5.0,10.0,77,0.00,,,0.00,meteohub,2013-02-05 22:21:00,
2013-02-05 16:26:00,38.7,32.0,29.94,WSW,250,5.0,10.0,77,0.00,,,0.00,meteohub,2013-02-05 22:26:00,
2013-02-05 16:31:00,38.5,32.2,29.95,WSW,244,5.0,10.0,78,0.00,,,0.00,meteohub,2013-02-05 22:31:00,
2013-02-05 16:36:00,38.5,32.2,29.95,West,263,7.0,11.0,78,0.00,,,0.00,meteohub,2013-02-05 22:36:00,
2013-02-05 16:41:00,38.1,31.8,29.96,West,272,5.0,11.0,78,0.00,,,0.00,meteohub,2013-02-05 22:41:00,
2013-02-05 16:46:00,38.1,31.8,29.96,West,275,5.0,9.0,78,0.00,,,0.00,meteohub,2013-02-05 22:46:00,
2013-02-05 16:51:00,38.1,31.8,29.96,West,261,5.0,9.0,78,0.00,,,0.00,meteohub,2013-02-05 22:51:00,
2013-02-05 16:56:00,37.9,32.0,29.96,SW,234,6.0,9.0,79,0.00,,,0.00,meteohub,2013-02-05 22:56:00,
2013-02-05 17:02:00,37.6,31.6,29.96,WNW,301,5.0,12.0,79,0.00,,,0.00,meteohub,2013-02-05 23:02:00,
2013-02-05 17:07:00,37.2,31.3,29.96,West,278,8.0,12.0,79,0.00,,,0.00,meteohub,2013-02-05 23:07:00,
2013-02-05 17:12:00,36.7,31.1,29.96,West,273,6.0,12.0,80,0.00,,,0.00,meteohub,2013-02-05 23:12:00,
2013-02-05 17:17:00,36.1,30.9,29.97,West,279,7.0,10.0,81,0.00,,,0.00,meteohub,2013-02-05 23:17:00,
2013-02-05 17:22:00,35.6,30.7,29.97,West,268,8.0,9.0,82,0.00,,,0.00,meteohub,2013-02-05 23:22:00,
2013-02-05 17:27:00,35.2,30.6,29.97,WNW,286,5.0,9.0,83,0.00,,,0.00,meteohub,2013-02-05 23:27:00,
2013-02-05 17:32:00,34.5,30.2,29.98,West,263,6.0,8.0,84,0.00,,,0.00,meteohub,2013-02-05 23:32:00,
2013-02-05 17:37:00,34.3,30.4,29.98,West,263,0.0,8.0,85,0.00,,,0.00,meteohub,2013-02-05 23:37:00,
2013-02-05 17:42:00,34.5,30.6,29.99,West,263,5.0,9.0,85,0.00,,,0.00,meteohub,2013-02-05 23:42:00,
2013-02-05 17:47:00,34.9,30.9,29.99,NW,307,5.0,9.0,85,0.00,,,0.00,meteohub,2013-02-05 23:47:00,
2013-02-05 17:52:00,35.4,31.1,30.00,NNW,334,0.0,20.0,84,0.00,,,0.00,meteohub,2013-02-05 23:52:00,
2013-02-05 17:57:00,35.4,31.1,30.00,NNW,337,0.0,20.0,84,0.00,,,0.00,meteohub,2013-02-05 23:57:00,
2013-02-05 18:02:00,35.4,31.1,30.00,West,280,6.0,20.0,84,0.00,,,0.00,meteohub,2013-02-06 00:02:00,
2013-02-05 18:08:00,35.4,31.1,30.01,WNW,303,0.0,9.0,84,0.00,,,0.00,meteohub,2013-02-06 00:08:00,
2013-02-05 18:13:00,35.4,31.1,30.01,WNW,292,5.0,9.0,84,0.00,,,0.00,meteohub,2013-02-06 00:13:00,
2013-02-05 18:18:00,35.4,30.7,30.01,WSW,242,9.0,9.0,83,0.00,,,0.00,meteohub,2013-02-06 00:18:00,
2013-02-05 18:23:00,35.6,30.7,30.02,WNW,290,11.0,18.0,82,0.00,,,0.00,meteohub,2013-02-06 00:23:00,
2013-02-05 18:28:00,35.4,30.6,30.02,WNW,298,8.0,18.0,82,0.00,,,0.00,meteohub,2013-02-06 00:28:00,
2013-02-05 18:33:00,35.2,30.0,30.03,WNW,303,5.0,18.0,81,0.00,,,0.00,meteohub,2013-02-06 00:33:00,
2013-02-05 18:38:00,35.1,29.8,30.03,West,265,6.0,16.0,81,0.00,,,0.00,meteohub,2013-02-06 00:38:00,
2013-02-05 18:43:00,34.9,29.7,30.03,SW,236,6.0,16.0,81,0.00,,,0.00,meteohub,2013-02-06 00:43:00,
2013-02-05 18:48:00,34.9,29.7,30.04,WNW,292,6.0,13.0,81,0.00,,,0.00,meteohub,2013-02-06 00:48:00,
2013-02-05 18:53:00,34.7,29.8,30.04,NW,304,0.0,13.0,82,0.00,,,0.00,meteohub,2013-02-06 00:53:00,
2013-02-05 18:58:00,34.5,29.7,30.04,SSE,163,5.0,13.0,82,0.00,,,0.00,meteohub,2013-02-06 00:58:00,
2013-02-05 19:03:00,34.5,29.7,30.04,WNW,286,9.0,13.0,82,0.00,,,0.00,meteohub,2013-02-06 01:03:00,
2013-02-05 19:08:00,34.3,29.5,30.05,West,269,6.0,13.0,82,0.00,,,0.00,meteohub,2013-02-06 01:08:00,
2013-02-05 19:13:00,34.3,29.5,30.05,NW,326,0.0,13.0,82,0.00,,,0.00,meteohub,2013-02-06 01:13:00,
2013-02-05 19:18:00,34.3,29.5,30.05,WNW,293,9.0,11.0,82,0.00,,,0.00,meteohub,2013-02-06 01:18:00,
2013-02-05 19:23:00,34.3,29.7,30.05,WNW,291,0.0,11.0,83,0.00,,,0.00,meteohub,2013-02-06 01:23:00,
2013-02-05 19:29:00,34.2,29.5,30.05,WNW,302,5.0,11.0,83,0.00,,,0.00,meteohub,2013-02-06 01:29:00,
2013-02-05 19:34:00,34.2,29.3,30.05,NNW,330,0.0,11.0,82,0.00,,,0.00,meteohub,2013-02-06 01:34:00,
2013-02-05 19:39:00,34.2,29.5,30.05,WNW,291,0.0,12.0,83,0.00,,,0.00,meteohub,2013-02-06 01:39:00,
2013-02-05 19:44:00,34.0,29.3,30.06,NNW,341,0.0,12.0,83,0.00,,,0.00,meteohub,2013-02-06 01:44:00,
2013-02-05 19:49:00,33.8,29.1,30.06,WNW,292,0.0,11.0,83,0.00,,,0.00,meteohub,2013-02-06 01:49:00,
2013-02-05 19:54:00,33.6,28.9,30.06,NW,318,0.0,10.0,83,0.00,,,0.00,meteohub,2013-02-06 01:54:00,
2013-02-05 19:59:00,33.6,29.3,30.06,NW,318,5.0,10.0,84,0.00,,,0.00,meteohub,2013-02-06 01:59:00,
2013-02-05 20:04:00,33.6,29.3,30.06,NW,315,0.0,9.0,84,0.00,,,0.00,meteohub,2013-02-06 02:04:00,
2013-02-05 20:09:00,33.6,29.3,30.06,WNW,295,0.0,9.0,84,0.00,,,0.00,meteohub,2013-02-06 02:09:00,
2013-02-05 20:14:00,33.6,29.3,30.06,WNW,295,0.0,7.0,84,0.00,,,0.00,meteohub,2013-02-06 02:14:00,
2013-02-05 20:19:00,33.6,29.3,30.07,WNW,295,0.0,7.0,84,0.00,,,0.00,meteohub,2013-02-06 02:19:00,
2013-02-05 20:24:00,33.6,29.3,30.07,WNW,295,0.0,6.0,84,0.00,,,0.00,meteohub,2013-02-06 02:24:00,
2013-02-05 20:29:00,33.4,29.5,30.07,WNW,295,0.0,0.0,85,0.00,,,0.00,meteohub,2013-02-06 02:29:00,
2013-02-05 20:34:00,33.4,29.5,30.07,WNW,295,0.0,5.0,85,0.00,,,0.00,meteohub,2013-02-06 02:34:00,
2013-02-05 20:39:00,33.3,29.3,30.07,WNW,295,0.0,5.0,85,0.00,,,0.00,meteohub,2013-02-06 02:39:00,
2013-02-05 20:44:00,33.3,29.5,30.07,WNW,295,0.0,0.0,86,0.00,,,0.00,meteohub,2013-02-06 02:44:00,
2013-02-05 20:50:00,33.3,29.5,30.07,WNW,295,0.0,5.0,86,0.00,,,0.00,meteohub,2013-02-06 02:50:00,
2013-02-05 20:55:00,33.3,29.5,30.07,WNW,295,0.0,5.0,86,0.00,,,0.00,meteohub,2013-02-06 02:55:00,
2013-02-05 21:00:00,33.3,29.5,30.08,WNW,295,0.0,5.0,86,0.00,,,0.00,meteohub,2013-02-06 03:00:00,
2013-02-05 21:05:00,33.4,29.7,30.08,WNW,295,0.0,0.0,86,0.00,,,0.00,meteohub,2013-02-06 03:05:00,
2013-02-05 21:10:00,33.4,29.5,30.08,WNW,295,0.0,0.0,85,0.00,,,0.00,meteohub,2013-02-06 03:10:00,
2013-02-05 21:15:00,33.4,29.5,30.08,WNW,295,0.0,0.0,85,0.00,,,0.00,meteohub,2013-02-06 03:15:00,
2013-02-05 21:20:00,33.4,29.5,30.09,WNW,295,0.0,0.0,85,0.00,,,0.00,meteohub,2013-02-06 03:20:00,
2013-02-05 21:25:00,33.4,29.7,30.09,WNW,295,0.0,0.0,86,0.00,,,0.00,meteohub,2013-02-06 03:25:00,
2013-02-05 21:30:00,33.1,29.7,30.09,WNW,295,5.0,0.0,87,0.00,,,0.00,meteohub,2013-02-06 03:30:00,
2013-02-05 21:35:00,32.7,29.3,30.09,WNW,295,5.0,6.0,87,0.00,,,0.00,meteohub,2013-02-06 03:35:00,
2013-02-05 21:40:00,32.9,29.5,30.09,West,273,0.0,6.0,87,0.00,,,0.00,meteohub,2013-02-06 03:40:00,
2013-02-05 21:46:00,33.1,29.7,30.09,West,273,0.0,6.0,87,0.00,,,0.00,meteohub,2013-02-06 03:46:00,
2013-02-05 21:51:00,33.3,29.5,30.09,West,273,0.0,6.0,86,0.00,,,0.00,meteohub,2013-02-06 03:51:00,
2013-02-05 21:56:00,33.4,29.7,30.09,West,273,0.0,0.0,86,0.00,,,0.00,meteohub,2013-02-06 03:56:00,
2013-02-05 22:01:00,33.3,29.5,30.09,West,273,0.0,0.0,86,0.00,,,0.00,meteohub,2013-02-06 04:01:00,
2013-02-05 22:06:00,33.1,29.7,30.09,West,273,0.0,0.0,87,0.00,,,0.00,meteohub,2013-02-06 04:06:00,
2013-02-05 22:11:00,33.1,29.8,30.09,West,274,0.0,6.0,88,0.00,,,0.00,meteohub,2013-02-06 04:11:00,
2013-02-05 22:16:00,33.1,29.8,30.10,West,274,0.0,6.0,88,0.00,,,0.00,meteohub,2013-02-06 04:16:00,
2013-02-05 22:21:00,33.1,29.8,30.10,West,274,0.0,6.0,88,0.00,,,0.00,meteohub,2013-02-06 04:21:00,
2013-02-05 22:26:00,33.1,29.8,30.10,West,274,0.0,5.0,88,0.00,,,0.00,meteohub,2013-02-06 04:26:00,
2013-02-05 22:31:00,33.1,29.8,30.10,West,274,0.0,0.0,88,0.00,,,0.00,meteohub,2013-02-06 04:31:00,
2013-02-05 22:36:00,32.7,29.5,30.10,West,274,0.0,0.0,88,0.00,,,0.00,meteohub,2013-02-06 04:36:00,
2013-02-05 22:41:00,32.9,29.7,30.11,West,274,0.0,5.0,88,0.00,,,0.00,meteohub,2013-02-06 04:41:00,
2013-02-05 22:46:00,33.1,29.8,30.11,West,274,0.0,5.0,88,0.00,,,0.00,meteohub,2013-02-06 04:46:00,
2013-02-05 22:51:00,33.1,29.8,30.11,West,274,0.0,5.0,88,0.00,,,0.00,meteohub,2013-02-06 04:51:00,
2013-02-05 22:57:00,33.3,30.0,30.11,West,274,0.0,5.0,88,0.00,,,0.00,meteohub,2013-02-06 04:57:00,
2013-02-05 23:00:00,33.3,29.8,30.11,West,274,0.0,5.0,87,0.00,,,0.00,meteohub,2013-02-06 05:00:00,
2013-02-05 23:01:00,33.3,29.8,30.11,West,274,0.0,5.0,87,0.00,,,0.00,meteohub,2013-02-06 05:01:00,
2013-02-05 23:03:00,33.4,30.0,30.12,West,281,0.0,5.0,87,0.00,,,0.00,meteohub,2013-02-06 05:03:00,
2013-02-05 23:08:00,33.6,29.8,30.12,West,281,0.0,6.0,86,0.00,,,0.00,meteohub,2013-02-06 05:08:00,
2013-02-05 23:13:00,33.6,29.8,30.12,West,281,0.0,6.0,86,0.00,,,0.00,meteohub,2013-02-06 05:13:00,
2013-02-05 23:18:00,33.6,30.2,30.12,West,281,0.0,6.0,87,0.00,,,0.00,meteohub,2013-02-06 05:18:00,
2013-02-05 23:23:00,33.4,30.0,30.12,NE,45,0.0,6.0,87,0.00,,,0.00,meteohub,2013-02-06 05:23:00,
2013-02-05 23:28:00,33.4,29.7,30.12,North,2,0.0,10.0,86,0.00,,,0.00,meteohub,2013-02-06 05:28:00,
2013-02-05 23:33:00,33.4,28.8,30.12,NNW,348,0.0,10.0,83,0.00,,,0.00,meteohub,2013-02-06 05:33:00,
2013-02-05 23:38:00,33.4,28.6,30.12,NNW,336,5.0,10.0,82,0.00,,,0.00,meteohub,2013-02-06 05:38:00,
2013-02-05 23:43:00,33.3,28.4,30.12,NNW,345,0.0,6.0,82,0.00,,,0.00,meteohub,2013-02-06 05:43:00,
2013-02-05 23:48:00,32.7,28.4,30.12,NNW,334,0.0,9.0,84,0.00,,,0.00,meteohub,2013-02-06 05:48:00,
2013-02-05 23:53:00,32.4,28.0,30.13,NW,309,0.0,9.0,84,0.00,,,0.00,meteohub,2013-02-06 05:53:00,
2013-02-05 23:58:00,31.8,27.9,30.13,NW,309,0.0,9.0,85,0.00,,,0.00,meteohub,2013-02-06 05:58:00,